sensor_id;sensor_type;location;lat;lon;timestamp;P1;durP1;ratioP1;P2;durP2;ratioP2
21386;SDS011;10854;45.922;6.716;2023-08-06T00:00:28;3.23;;;2.50;;
21386;SDS011;10854;45.922;6.716;2023-08-06T00:02:57;2.47;;;2.27;;
21386;SDS011;10854;45.922;6.716;2023-08-06T00:05:25;2.70;;;2.43;;
21386;SDS011;10854;45.922;6.716;2023-08-06T00:07:53;2.90;;;2.60;;
21386;SDS011;10854;45.922;6.716;2023-08-06T00:10:21;5.23;;;2.40;;
21386;SDS011;10854;45.922;6.716;2023-08-06T00:12:49;5.13;;;2.23;;
21386;SDS011;10854;45.922;6.716;2023-08-06T00:15:17;2.87;;;2.10;;
21386;SDS011;10854;45.922;6.716;2023-08-06T00:17:47;2.90;;;2.40;;
21386;SDS011;10854;45.922;6.716;2023-08-06T00:20:15;3.07;;;2.10;;
21386;SDS011;10854;45.922;6.716;2023-08-06T00:22:43;2.80;;;2.30;;
21386;SDS011;10854;45.922;6.716;2023-08-06T00:25:12;4.77;;;2.27;;
21386;SDS011;10854;45.922;6.716;2023-08-06T00:27:40;6.63;;;2.67;;
21386;SDS011;10854;45.922;6.716;2023-08-06T00:30:08;2.60;;;2.33;;
21386;SDS011;10854;45.922;6.716;2023-08-06T00:32:36;4.40;;;2.60;;
21386;SDS011;10854;45.922;6.716;2023-08-06T00:35:05;2.90;;;2.60;;
21386;SDS011;10854;45.922;6.716;2023-08-06T00:37:33;3.00;;;2.70;;
21386;SDS011;10854;45.922;6.716;2023-08-06T00:40:01;4.80;;;2.60;;
21386;SDS011;10854;45.922;6.716;2023-08-06T00:42:30;2.70;;;2.50;;
21386;SDS011;10854;45.922;6.716;2023-08-06T00:44:58;2.63;;;2.37;;
21386;SDS011;10854;45.922;6.716;2023-08-06T00:47:26;2.90;;;2.43;;
21386;SDS011;10854;45.922;6.716;2023-08-06T00:49:54;2.90;;;2.37;;
21386;SDS011;10854;45.922;6.716;2023-08-06T00:52:22;4.80;;;2.67;;
21386;SDS011;10854;45.922;6.716;2023-08-06T00:54:51;3.07;;;2.30;;
21386;SDS011;10854;45.922;6.716;2023-08-06T00:57:19;3.77;;;2.50;;
21386;SDS011;10854;45.922;6.716;2023-08-06T00:59:52;4.73;;;2.67;;
21386;SDS011;10854;45.922;6.716;2023-08-06T01:02:21;3.87;;;2.10;;
21386;SDS011;10854;45.922;6.716;2023-08-06T01:04:50;2.90;;;2.60;;
21386;SDS011;10854;45.922;6.716;2023-08-06T01:10:00;4.47;;;2.50;;
21386;SDS011;10854;45.922;6.716;2023-08-06T01:15:49;3.27;;;2.30;;
21386;SDS011;10854;45.922;6.716;2023-08-06T01:18:20;3.67;;;2.80;;
21386;SDS011;10854;45.922;6.716;2023-08-06T01:20:49;4.73;;;4.13;;
21386;SDS011;10854;45.922;6.716;2023-08-06T01:23:18;3.30;;;2.63;;
21386;SDS011;10854;45.922;6.716;2023-08-06T01:25:56;4.07;;;2.43;;
21386;SDS011;10854;45.922;6.716;2023-08-06T01:28:39;3.70;;;2.60;;
21386;SDS011;10854;45.922;6.716;2023-08-06T01:31:15;3.83;;;2.77;;
21386;SDS011;10854;45.922;6.716;2023-08-06T01:33:49;3.63;;;3.30;;
21386;SDS011;10854;45.922;6.716;2023-08-06T01:36:18;3.63;;;3.03;;
21386;SDS011;10854;45.922;6.716;2023-08-06T01:38:47;4.60;;;3.63;;
21386;SDS011;10854;45.922;6.716;2023-08-06T01:41:16;4.37;;;3.53;;
21386;SDS011;10854;45.922;6.716;2023-08-06T01:43:44;5.13;;;3.97;;
21386;SDS011;10854;45.922;6.716;2023-08-06T01:46:12;4.10;;;2.93;;
21386;SDS011;10854;45.922;6.716;2023-08-06T01:48:40;5.30;;;3.03;;
21386;SDS011;10854;45.922;6.716;2023-08-06T01:51:08;3.70;;;2.63;;
21386;SDS011;10854;45.922;6.716;2023-08-06T01:53:37;3.07;;;2.67;;
21386;SDS011;10854;45.922;6.716;2023-08-06T01:56:05;4.90;;;2.60;;
21386;SDS011;10854;45.922;6.716;2023-08-06T01:58:33;5.97;;;3.17;;
21386;SDS011;10854;45.922;6.716;2023-08-06T02:01:01;4.20;;;2.87;;
21386;SDS011;10854;45.922;6.716;2023-08-06T02:03:30;6.07;;;3.00;;
21386;SDS011;10854;45.922;6.716;2023-08-06T02:05:58;5.53;;;2.90;;
21386;SDS011;10854;45.922;6.716;2023-08-06T02:08:28;3.00;;;2.70;;
21386;SDS011;10854;45.922;6.716;2023-08-06T02:10:56;2.90;;;2.60;;
21386;SDS011;10854;45.922;6.716;2023-08-06T02:13:25;5.00;;;2.80;;
21386;SDS011;10854;45.922;6.716;2023-08-06T02:15:53;4.67;;;2.90;;
21386;SDS011;10854;45.922;6.716;2023-08-06T02:18:23;3.00;;;2.30;;
21386;SDS011;10854;45.922;6.716;2023-08-06T02:20:55;4.07;;;2.57;;
21386;SDS011;10854;45.922;6.716;2023-08-06T02:23:24;4.37;;;2.93;;
21386;SDS011;10854;45.922;6.716;2023-08-06T02:25:59;3.37;;;2.50;;
21386;SDS011;10854;45.922;6.716;2023-08-06T02:28:31;3.43;;;2.73;;
21386;SDS011;10854;45.922;6.716;2023-08-06T02:30:59;3.40;;;2.30;;
21386;SDS011;10854;45.922;6.716;2023-08-06T02:33:28;2.87;;;2.40;;
21386;SDS011;10854;45.922;6.716;2023-08-06T02:36:06;3.27;;;2.10;;
21386;SDS011;10854;45.922;6.716;2023-08-06T02:38:34;4.00;;;2.80;;
21386;SDS011;10854;45.922;6.716;2023-08-06T02:41:02;5.10;;;2.47;;
21386;SDS011;10854;45.922;6.716;2023-08-06T02:43:31;4.93;;;2.87;;
21386;SDS011;10854;45.922;6.716;2023-08-06T02:45:59;2.47;;;2.27;;
21386;SDS011;10854;45.922;6.716;2023-08-06T02:48:28;4.83;;;2.47;;
21386;SDS011;10854;45.922;6.716;2023-08-06T02:50:57;4.87;;;2.67;;
21386;SDS011;10854;45.922;6.716;2023-08-06T02:53:26;2.97;;;2.40;;
21386;SDS011;10854;45.922;6.716;2023-08-06T02:55:54;2.93;;;2.60;;
21386;SDS011;10854;45.922;6.716;2023-08-06T02:58:23;4.63;;;2.80;;
21386;SDS011;10854;45.922;6.716;2023-08-06T03:01:04;6.30;;;3.63;;
21386;SDS011;10854;45.922;6.716;2023-08-06T03:03:34;4.10;;;3.17;;
21386;SDS011;10854;45.922;6.716;2023-08-06T03:06:02;4.40;;;2.70;;
21386;SDS011;10854;45.922;6.716;2023-08-06T03:08:30;3.40;;;2.50;;
21386;SDS011;10854;45.922;6.716;2023-08-06T03:10:59;3.80;;;2.73;;
21386;SDS011;10854;45.922;6.716;2023-08-06T03:13:27;5.10;;;3.10;;
21386;SDS011;10854;45.922;6.716;2023-08-06T03:15:55;2.50;;;2.30;;
21386;SDS011;10854;45.922;6.716;2023-08-06T03:18:25;4.63;;;3.23;;
21386;SDS011;10854;45.922;6.716;2023-08-06T03:20:53;5.73;;;3.70;;
21386;SDS011;10854;45.922;6.716;2023-08-06T03:23:22;6.67;;;3.70;;
21386;SDS011;10854;45.922;6.716;2023-08-06T03:25:50;4.00;;;3.60;;
21386;SDS011;10854;45.922;6.716;2023-08-06T03:28:18;4.60;;;3.53;;
21386;SDS011;10854;45.922;6.716;2023-08-06T03:30:46;4.03;;;3.63;;
21386;SDS011;10854;45.922;6.716;2023-08-06T03:33:14;3.67;;;3.13;;
21386;SDS011;10854;45.922;6.716;2023-08-06T03:35:42;4.27;;;3.07;;
21386;SDS011;10854;45.922;6.716;2023-08-06T03:38:11;3.40;;;3.10;;
21386;SDS011;10854;45.922;6.716;2023-08-06T03:40:39;3.67;;;2.57;;
21386;SDS011;10854;45.922;6.716;2023-08-06T03:43:07;3.40;;;2.87;;
21386;SDS011;10854;45.922;6.716;2023-08-06T03:45:35;2.80;;;2.60;;
21386;SDS011;10854;45.922;6.716;2023-08-06T03:48:04;2.87;;;2.30;;
21386;SDS011;10854;45.922;6.716;2023-08-06T03:50:32;3.10;;;2.10;;
21386;SDS011;10854;45.922;6.716;2023-08-06T03:53:01;3.43;;;2.40;;
21386;SDS011;10854;45.922;6.716;2023-08-06T03:55:29;4.57;;;2.33;;
21386;SDS011;10854;45.922;6.716;2023-08-06T03:57:57;3.57;;;2.10;;
21386;SDS011;10854;45.922;6.716;2023-08-06T04:00:26;4.10;;;2.00;;
21386;SDS011;10854;45.922;6.716;2023-08-06T04:02:54;2.83;;;1.90;;
21386;SDS011;10854;45.922;6.716;2023-08-06T04:05:22;2.30;;;2.10;;
21386;SDS011;10854;45.922;6.716;2023-08-06T04:07:50;3.00;;;1.83;;
21386;SDS011;10854;45.922;6.716;2023-08-06T04:10:18;2.57;;;2.20;;
21386;SDS011;10854;45.922;6.716;2023-08-06T04:12:47;2.30;;;1.77;;
21386;SDS011;10854;45.922;6.716;2023-08-06T04:15:15;2.20;;;1.90;;
21386;SDS011;10854;45.922;6.716;2023-08-06T04:17:43;2.60;;;1.90;;
21386;SDS011;10854;45.922;6.716;2023-08-06T04:20:11;2.60;;;2.10;;
21386;SDS011;10854;45.922;6.716;2023-08-06T04:22:39;2.67;;;1.83;;
21386;SDS011;10854;45.922;6.716;2023-08-06T04:25:08;3.20;;;1.90;;
21386;SDS011;10854;45.922;6.716;2023-08-06T04:27:36;2.10;;;1.90;;
21386;SDS011;10854;45.922;6.716;2023-08-06T04:30:08;2.20;;;2.00;;
21386;SDS011;10854;45.922;6.716;2023-08-06T04:32:39;3.20;;;2.10;;
21386;SDS011;10854;45.922;6.716;2023-08-06T04:35:07;2.43;;;2.10;;
21386;SDS011;10854;45.922;6.716;2023-08-06T04:37:35;2.27;;;1.87;;
21386;SDS011;10854;45.922;6.716;2023-08-06T04:40:04;2.90;;;2.30;;
21386;SDS011;10854;45.922;6.716;2023-08-06T04:42:33;2.30;;;2.00;;
21386;SDS011;10854;45.922;6.716;2023-08-06T04:45:02;2.17;;;1.77;;
21386;SDS011;10854;45.922;6.716;2023-08-06T04:47:30;2.10;;;1.90;;
21386;SDS011;10854;45.922;6.716;2023-08-06T04:49:58;2.33;;;1.80;;
21386;SDS011;10854;45.922;6.716;2023-08-06T04:52:26;1.77;;;1.67;;
21386;SDS011;10854;45.922;6.716;2023-08-06T04:54:55;2.80;;;2.00;;
21386;SDS011;10854;45.922;6.716;2023-08-06T04:57:23;2.63;;;1.83;;
21386;SDS011;10854;45.922;6.716;2023-08-06T04:59:51;2.83;;;1.70;;
21386;SDS011;10854;45.922;6.716;2023-08-06T05:02:20;2.37;;;1.80;;
21386;SDS011;10854;45.922;6.716;2023-08-06T05:04:48;5.20;;;2.20;;
21386;SDS011;10854;45.922;6.716;2023-08-06T05:07:16;2.83;;;2.00;;
21386;SDS011;10854;45.922;6.716;2023-08-06T05:09:44;4.00;;;2.20;;
21386;SDS011;10854;45.922;6.716;2023-08-06T05:12:12;3.80;;;1.80;;
21386;SDS011;10854;45.922;6.716;2023-08-06T05:14:40;3.13;;;2.17;;
21386;SDS011;10854;45.922;6.716;2023-08-06T05:17:09;2.83;;;2.30;;
21386;SDS011;10854;45.922;6.716;2023-08-06T05:19:37;2.90;;;2.50;;
21386;SDS011;10854;45.922;6.716;2023-08-06T05:22:05;3.33;;;2.90;;
21386;SDS011;10854;45.922;6.716;2023-08-06T05:24:33;3.60;;;2.73;;
21386;SDS011;10854;45.922;6.716;2023-08-06T05:27:02;5.77;;;3.23;;
21386;SDS011;10854;45.922;6.716;2023-08-06T05:29:31;2.93;;;2.57;;
21386;SDS011;10854;45.922;6.716;2023-08-06T05:31:59;4.13;;;2.67;;
21386;SDS011;10854;45.922;6.716;2023-08-06T05:34:27;3.23;;;2.67;;
21386;SDS011;10854;45.922;6.716;2023-08-06T05:36:56;5.23;;;3.30;;
21386;SDS011;10854;45.922;6.716;2023-08-06T05:39:24;3.80;;;2.90;;
21386;SDS011;10854;45.922;6.716;2023-08-06T05:41:52;4.90;;;2.83;;
21386;SDS011;10854;45.922;6.716;2023-08-06T05:44:20;2.70;;;2.50;;
21386;SDS011;10854;45.922;6.716;2023-08-06T05:46:49;3.37;;;2.70;;
21386;SDS011;10854;45.922;6.716;2023-08-06T05:49:17;2.67;;;2.47;;
21386;SDS011;10854;45.922;6.716;2023-08-06T05:51:45;4.30;;;2.47;;
21386;SDS011;10854;45.922;6.716;2023-08-06T05:54:13;3.33;;;2.40;;
21386;SDS011;10854;45.922;6.716;2023-08-06T05:56:41;2.60;;;2.27;;
21386;SDS011;10854;45.922;6.716;2023-08-06T05:59:10;2.50;;;2.30;;
21386;SDS011;10854;45.922;6.716;2023-08-06T06:01:39;3.43;;;2.67;;
21386;SDS011;10854;45.922;6.716;2023-08-06T06:04:07;2.60;;;2.40;;
21386;SDS011;10854;45.922;6.716;2023-08-06T06:06:35;2.83;;;2.57;;
21386;SDS011;10854;45.922;6.716;2023-08-06T06:09:03;2.93;;;2.40;;
21386;SDS011;10854;45.922;6.716;2023-08-06T06:11:31;4.63;;;2.53;;
21386;SDS011;10854;45.922;6.716;2023-08-06T06:14:01;2.60;;;2.13;;
21386;SDS011;10854;45.922;6.716;2023-08-06T06:16:29;3.30;;;2.07;;
21386;SDS011;10854;45.922;6.716;2023-08-06T06:18:57;2.17;;;1.90;;
21386;SDS011;10854;45.922;6.716;2023-08-06T06:21:25;2.97;;;1.80;;
21386;SDS011;10854;45.922;6.716;2023-08-06T06:23:54;2.43;;;2.10;;
21386;SDS011;10854;45.922;6.716;2023-08-06T06:26:23;4.20;;;2.33;;
21386;SDS011;10854;45.922;6.716;2023-08-06T06:28:51;3.87;;;2.00;;
21386;SDS011;10854;45.922;6.716;2023-08-06T06:31:19;3.67;;;1.90;;
21386;SDS011;10854;45.922;6.716;2023-08-06T06:33:47;5.37;;;2.37;;
21386;SDS011;10854;45.922;6.716;2023-08-06T06:36:15;3.83;;;2.10;;
21386;SDS011;10854;45.922;6.716;2023-08-06T06:38:44;5.43;;;2.43;;
21386;SDS011;10854;45.922;6.716;2023-08-06T06:41:12;4.27;;;2.27;;
21386;SDS011;10854;45.922;6.716;2023-08-06T06:43:40;4.17;;;2.20;;
21386;SDS011;10854;45.922;6.716;2023-08-06T06:46:09;2.90;;;2.20;;
21386;SDS011;10854;45.922;6.716;2023-08-06T06:48:37;4.83;;;2.30;;
21386;SDS011;10854;45.922;6.716;2023-08-06T06:51:05;4.47;;;2.47;;
21386;SDS011;10854;45.922;6.716;2023-08-06T06:53:33;3.97;;;2.33;;
21386;SDS011;10854;45.922;6.716;2023-08-06T06:56:02;5.00;;;2.40;;
21386;SDS011;10854;45.922;6.716;2023-08-06T06:58:32;3.87;;;2.33;;
21386;SDS011;10854;45.922;6.716;2023-08-06T07:01:00;4.00;;;2.20;;
21386;SDS011;10854;45.922;6.716;2023-08-06T07:03:28;5.50;;;2.10;;
21386;SDS011;10854;45.922;6.716;2023-08-06T07:05:57;2.73;;;2.03;;
21386;SDS011;10854;45.922;6.716;2023-08-06T07:08:26;3.43;;;2.30;;
21386;SDS011;10854;45.922;6.716;2023-08-06T07:11:04;3.67;;;1.97;;
21386;SDS011;10854;45.922;6.716;2023-08-06T07:13:34;4.80;;;2.30;;
21386;SDS011;10854;45.922;6.716;2023-08-06T07:16:02;3.60;;;2.00;;
21386;SDS011;10854;45.922;6.716;2023-08-06T07:18:31;5.73;;;2.37;;
21386;SDS011;10854;45.922;6.716;2023-08-06T07:20:59;5.47;;;2.20;;
21386;SDS011;10854;45.922;6.716;2023-08-06T07:23:30;5.13;;;2.17;;
21386;SDS011;10854;45.922;6.716;2023-08-06T07:25:58;4.70;;;2.27;;
21386;SDS011;10854;45.922;6.716;2023-08-06T07:28:26;9.50;;;2.33;;
21386;SDS011;10854;45.922;6.716;2023-08-06T07:30:54;8.43;;;2.37;;
21386;SDS011;10854;45.922;6.716;2023-08-06T07:33:22;5.83;;;2.07;;
21386;SDS011;10854;45.922;6.716;2023-08-06T07:35:50;7.20;;;2.60;;
21386;SDS011;10854;45.922;6.716;2023-08-06T07:38:20;6.87;;;2.30;;
21386;SDS011;10854;45.922;6.716;2023-08-06T07:40:49;8.53;;;2.37;;
21386;SDS011;10854;45.922;6.716;2023-08-06T07:43:17;8.93;;;2.50;;
21386;SDS011;10854;45.922;6.716;2023-08-06T07:45:45;4.87;;;2.17;;
21386;SDS011;10854;45.922;6.716;2023-08-06T07:48:13;7.43;;;1.93;;
21386;SDS011;10854;45.922;6.716;2023-08-06T07:50:41;4.93;;;1.90;;
21386;SDS011;10854;45.922;6.716;2023-08-06T07:53:12;7.23;;;1.90;;
21386;SDS011;10854;45.922;6.716;2023-08-06T07:55:40;6.03;;;1.77;;
21386;SDS011;10854;45.922;6.716;2023-08-06T07:58:09;7.07;;;2.13;;
21386;SDS011;10854;45.922;6.716;2023-08-06T08:00:37;5.47;;;1.67;;
21386;SDS011;10854;45.922;6.716;2023-08-06T08:03:06;6.53;;;1.90;;
21386;SDS011;10854;45.922;6.716;2023-08-06T08:05:34;4.30;;;1.47;;
21386;SDS011;10854;45.922;6.716;2023-08-06T08:08:02;4.87;;;1.70;;
21386;SDS011;10854;45.922;6.716;2023-08-06T08:10:31;3.10;;;1.47;;
21386;SDS011;10854;45.922;6.716;2023-08-06T08:13:00;6.63;;;1.63;;
21386;SDS011;10854;45.922;6.716;2023-08-06T08:15:29;5.33;;;1.80;;
21386;SDS011;10854;45.922;6.716;2023-08-06T08:17:57;13.87;;;2.17;;
21386;SDS011;10854;45.922;6.716;2023-08-06T08:20:26;4.90;;;1.60;;
21386;SDS011;10854;45.922;6.716;2023-08-06T08:22:59;4.70;;;1.60;;
21386;SDS011;10854;45.922;6.716;2023-08-06T08:25:28;3.40;;;1.53;;
21386;SDS011;10854;45.922;6.716;2023-08-06T08:27:57;3.63;;;1.33;;
21386;SDS011;10854;45.922;6.716;2023-08-06T08:30:25;5.60;;;1.63;;
21386;SDS011;10854;45.922;6.716;2023-08-06T08:32:54;3.13;;;1.20;;
21386;SDS011;10854;45.922;6.716;2023-08-06T08:35:22;3.47;;;1.30;;
21386;SDS011;10854;45.922;6.716;2023-08-06T08:37:51;3.27;;;1.23;;
21386;SDS011;10854;45.922;6.716;2023-08-06T08:40:19;3.13;;;1.33;;
21386;SDS011;10854;45.922;6.716;2023-08-06T08:42:50;4.27;;;1.37;;
21386;SDS011;10854;45.922;6.716;2023-08-06T08:45:19;4.70;;;1.30;;
21386;SDS011;10854;45.922;6.716;2023-08-06T08:47:49;3.63;;;1.50;;
21386;SDS011;10854;45.922;6.716;2023-08-06T08:50:18;2.30;;;1.30;;
21386;SDS011;10854;45.922;6.716;2023-08-06T08:52:47;2.63;;;1.17;;
21386;SDS011;10854;45.922;6.716;2023-08-06T08:55:18;1.70;;;1.23;;
21386;SDS011;10854;45.922;6.716;2023-08-06T08:57:48;3.30;;;1.30;;
21386;SDS011;10854;45.922;6.716;2023-08-06T09:00:17;3.50;;;1.30;;
21386;SDS011;10854;45.922;6.716;2023-08-06T09:02:45;3.00;;;1.47;;
21386;SDS011;10854;45.922;6.716;2023-08-06T09:05:14;3.07;;;1.17;;
21386;SDS011;10854;45.922;6.716;2023-08-06T09:07:45;2.50;;;1.17;;
21386;SDS011;10854;45.922;6.716;2023-08-06T09:10:16;3.03;;;1.37;;
21386;SDS011;10854;45.922;6.716;2023-08-06T09:12:45;2.40;;;1.10;;
21386;SDS011;10854;45.922;6.716;2023-08-06T09:15:15;3.53;;;1.33;;
21386;SDS011;10854;45.922;6.716;2023-08-06T09:17:44;3.30;;;1.30;;
21386;SDS011;10854;45.922;6.716;2023-08-06T09:20:12;5.33;;;1.17;;
21386;SDS011;10854;45.922;6.716;2023-08-06T09:22:41;3.23;;;1.50;;
21386;SDS011;10854;45.922;6.716;2023-08-06T09:25:11;3.43;;;1.30;;
21386;SDS011;10854;45.922;6.716;2023-08-06T09:27:41;2.10;;;1.00;;
21386;SDS011;10854;45.922;6.716;2023-08-06T09:30:19;4.30;;;1.27;;
21386;SDS011;10854;45.922;6.716;2023-08-06T09:33:00;3.70;;;1.40;;
21386;SDS011;10854;45.922;6.716;2023-08-06T09:35:28;2.30;;;1.20;;
21386;SDS011;10854;45.922;6.716;2023-08-06T09:38:07;5.27;;;1.50;;
21386;SDS011;10854;45.922;6.716;2023-08-06T09:40:37;1.70;;;0.97;;
21386;SDS011;10854;45.922;6.716;2023-08-06T09:43:07;2.17;;;1.03;;
21386;SDS011;10854;45.922;6.716;2023-08-06T09:45:36;2.88;;;1.17;;
21386;SDS011;10854;45.922;6.716;2023-08-06T09:48:06;3.35;;;1.30;;
21386;SDS011;10854;45.922;6.716;2023-08-06T09:50:36;3.30;;;1.00;;
21386;SDS011;10854;45.922;6.716;2023-08-06T09:53:05;2.25;;;1.20;;
21386;SDS011;10854;45.922;6.716;2023-08-06T09:55:35;2.05;;;0.98;;
21386;SDS011;10854;45.922;6.716;2023-08-06T09:58:05;1.25;;;0.85;;
21386;SDS011;10854;45.922;6.716;2023-08-06T10:00:35;1.90;;;1.00;;
21386;SDS011;10854;45.922;6.716;2023-08-06T10:03:05;2.90;;;1.10;;
21386;SDS011;10854;45.922;6.716;2023-08-06T10:05:35;2.00;;;1.20;;
21386;SDS011;10854;45.922;6.716;2023-08-06T10:08:05;2.22;;;1.10;;
21386;SDS011;10854;45.922;6.716;2023-08-06T10:10:34;2.55;;;1.17;;
21386;SDS011;10854;45.922;6.716;2023-08-06T10:13:04;2.30;;;1.02;;
21386;SDS011;10854;45.922;6.716;2023-08-06T10:15:35;2.13;;;1.20;;
21386;SDS011;10854;45.922;6.716;2023-08-06T10:18:05;2.67;;;1.20;;
21386;SDS011;10854;45.922;6.716;2023-08-06T10:20:34;2.17;;;1.17;;
21386;SDS011;10854;45.922;6.716;2023-08-06T10:23:03;1.73;;;1.05;;
21386;SDS011;10854;45.922;6.716;2023-08-06T10:25:33;2.13;;;1.10;;
21386;SDS011;10854;45.922;6.716;2023-08-06T10:28:09;3.28;;;1.33;;
21386;SDS011;10854;45.922;6.716;2023-08-06T10:30:47;2.72;;;1.20;;
21386;SDS011;10854;45.922;6.716;2023-08-06T10:33:15;2.05;;;1.00;;
21386;SDS011;10854;45.922;6.716;2023-08-06T10:35:48;2.88;;;1.30;;
21386;SDS011;10854;45.922;6.716;2023-08-06T10:38:18;1.10;;;1.00;;
21386;SDS011;10854;45.922;6.716;2023-08-06T10:43:55;3.10;;;1.10;;
21386;SDS011;10854;45.922;6.716;2023-08-06T10:46:26;1.13;;;0.90;;
21386;SDS011;10854;45.922;6.716;2023-08-06T10:48:55;2.03;;;0.80;;
21386;SDS011;10854;45.922;6.716;2023-08-06T10:51:23;1.77;;;1.00;;
21386;SDS011;10854;45.922;6.716;2023-08-06T10:53:52;1.92;;;0.95;;
21386;SDS011;10854;45.922;6.716;2023-08-06T10:56:24;1.45;;;0.90;;
21386;SDS011;10854;45.922;6.716;2023-08-06T10:58:56;2.40;;;0.68;;
21386;SDS011;10854;45.922;6.716;2023-08-06T11:01:26;2.40;;;1.00;;
21386;SDS011;10854;45.922;6.716;2023-08-06T11:04:00;1.13;;;0.77;;
21386;SDS011;10854;45.922;6.716;2023-08-06T11:06:30;2.47;;;0.90;;
21386;SDS011;10854;45.922;6.716;2023-08-06T11:08:58;1.07;;;0.70;;
21386;SDS011;10854;45.922;6.716;2023-08-06T11:11:27;1.10;;;0.90;;
21386;SDS011;10854;45.922;6.716;2023-08-06T11:13:57;1.77;;;0.97;;
21386;SDS011;10854;45.922;6.716;2023-08-06T11:16:25;2.47;;;0.83;;
21386;SDS011;10854;45.922;6.716;2023-08-06T11:18:54;1.53;;;0.90;;
21386;SDS011;10854;45.922;6.716;2023-08-06T11:21:23;1.07;;;0.63;;
21386;SDS011;10854;45.922;6.716;2023-08-06T11:23:52;1.50;;;0.77;;
21386;SDS011;10854;45.922;6.716;2023-08-06T11:26:21;2.33;;;0.80;;
21386;SDS011;10854;45.922;6.716;2023-08-06T11:28:53;1.27;;;0.80;;
21386;SDS011;10854;45.922;6.716;2023-08-06T11:31:22;1.20;;;0.80;;
21386;SDS011;10854;45.922;6.716;2023-08-06T11:33:51;1.30;;;1.00;;
21386;SDS011;10854;45.922;6.716;2023-08-06T11:36:36;1.33;;;0.80;;
21386;SDS011;10854;45.922;6.716;2023-08-06T11:39:08;1.37;;;0.83;;
21386;SDS011;10854;45.922;6.716;2023-08-06T11:41:36;1.03;;;0.83;;
21386;SDS011;10854;45.922;6.716;2023-08-06T11:44:07;0.80;;;0.70;;
21386;SDS011;10854;45.922;6.716;2023-08-06T11:46:53;2.05;;;0.80;;
21386;SDS011;10854;45.922;6.716;2023-08-06T11:49:42;0.73;;;0.70;;
21386;SDS011;10854;45.922;6.716;2023-08-06T11:52:24;1.33;;;0.75;;
21386;SDS011;10854;45.922;6.716;2023-08-06T11:55:06;1.17;;;0.73;;
21386;SDS011;10854;45.922;6.716;2023-08-06T11:57:38;1.05;;;0.88;;
21386;SDS011;10854;45.922;6.716;2023-08-06T12:00:08;0.82;;;0.70;;
21386;SDS011;10854;45.922;6.716;2023-08-06T12:02:38;0.80;;;0.70;;
21386;SDS011;10854;45.922;6.716;2023-08-06T12:05:12;1.33;;;0.85;;
21386;SDS011;10854;45.922;6.716;2023-08-06T12:07:46;1.23;;;0.70;;
21386;SDS011;10854;45.922;6.716;2023-08-06T12:10:16;1.33;;;0.70;;
21386;SDS011;10854;45.922;6.716;2023-08-06T12:12:46;0.60;;;0.60;;
21386;SDS011;10854;45.922;6.716;2023-08-06T12:15:15;0.80;;;0.60;;
21386;SDS011;10854;45.922;6.716;2023-08-06T12:17:44;1.65;;;0.70;;
21386;SDS011;10854;45.922;6.716;2023-08-06T12:20:12;0.75;;;0.60;;
21386;SDS011;10854;45.922;6.716;2023-08-06T12:22:40;0.98;;;0.80;;
21386;SDS011;10854;45.922;6.716;2023-08-06T12:25:10;0.77;;;0.70;;
21386;SDS011;10854;45.922;6.716;2023-08-06T12:27:40;1.10;;;0.80;;
21386;SDS011;10854;45.922;6.716;2023-08-06T12:30:10;1.10;;;0.80;;
21386;SDS011;10854;45.922;6.716;2023-08-06T12:32:39;0.50;;;0.50;;
21386;SDS011;10854;45.922;6.716;2023-08-06T12:35:07;0.60;;;0.60;;
21386;SDS011;10854;45.922;6.716;2023-08-06T12:37:36;1.60;;;0.70;;
21386;SDS011;10854;45.922;6.716;2023-08-06T12:40:06;0.60;;;0.60;;
21386;SDS011;10854;45.922;6.716;2023-08-06T12:42:46;1.20;;;0.60;;
21386;SDS011;10854;45.922;6.716;2023-08-06T12:45:14;0.63;;;0.63;;
21386;SDS011;10854;45.922;6.716;2023-08-06T12:47:42;2.10;;;0.67;;
21386;SDS011;10854;45.922;6.716;2023-08-06T12:50:11;0.87;;;0.80;;
21386;SDS011;10854;45.922;6.716;2023-08-06T12:52:39;0.77;;;0.60;;
21386;SDS011;10854;45.922;6.716;2023-08-06T12:55:07;1.47;;;0.70;;
21386;SDS011;10854;45.922;6.716;2023-08-06T12:57:35;1.20;;;0.53;;
21386;SDS011;10854;45.922;6.716;2023-08-06T13:00:13;0.67;;;0.60;;
21386;SDS011;10854;45.922;6.716;2023-08-06T13:02:41;0.97;;;0.67;;
21386;SDS011;10854;45.922;6.716;2023-08-06T13:05:10;0.70;;;0.60;;
21386;SDS011;10854;45.922;6.716;2023-08-06T13:07:38;0.85;;;0.60;;
21386;SDS011;10854;45.922;6.716;2023-08-06T13:10:06;0.88;;;0.75;;
21386;SDS011;10854;45.922;6.716;2023-08-06T13:12:34;1.35;;;0.70;;
21386;SDS011;10854;45.922;6.716;2023-08-06T13:15:03;0.80;;;0.50;;
21386;SDS011;10854;45.922;6.716;2023-08-06T13:17:31;0.52;;;0.52;;
21386;SDS011;10854;45.922;6.716;2023-08-06T13:20:00;0.52;;;0.52;;
21386;SDS011;10854;45.922;6.716;2023-08-06T13:22:28;0.88;;;0.60;;
21386;SDS011;10854;45.922;6.716;2023-08-06T13:24:56;0.70;;;0.50;;
21386;SDS011;10854;45.922;6.716;2023-08-06T13:27:24;0.73;;;0.50;;
21386;SDS011;10854;45.922;6.716;2023-08-06T13:29:53;0.60;;;0.60;;
21386;SDS011;10854;45.922;6.716;2023-08-06T13:32:21;0.80;;;0.50;;
21386;SDS011;10854;45.922;6.716;2023-08-06T13:34:49;0.30;;;0.30;;
21386;SDS011;10854;45.922;6.716;2023-08-06T13:37:17;0.73;;;0.53;;
21386;SDS011;10854;45.922;6.716;2023-08-06T13:39:45;0.52;;;0.52;;
21386;SDS011;10854;45.922;6.716;2023-08-06T13:42:15;0.43;;;0.43;;
21386;SDS011;10854;45.922;6.716;2023-08-06T13:44:43;0.43;;;0.43;;
21386;SDS011;10854;45.922;6.716;2023-08-06T13:47:11;0.45;;;0.45;;
21386;SDS011;10854;45.922;6.716;2023-08-06T13:49:39;2.00;;;0.60;;
21386;SDS011;10854;45.922;6.716;2023-08-06T13:52:07;0.52;;;0.52;;
21386;SDS011;10854;45.922;6.716;2023-08-06T13:54:45;0.45;;;0.45;;
21386;SDS011;10854;45.922;6.716;2023-08-06T13:57:14;0.65;;;0.50;;
21386;SDS011;10854;45.922;6.716;2023-08-06T13:59:42;0.63;;;0.60;;
21386;SDS011;10854;45.922;6.716;2023-08-06T14:02:11;0.57;;;0.50;;
21386;SDS011;10854;45.922;6.716;2023-08-06T14:04:39;0.50;;;0.50;;
21386;SDS011;10854;45.922;6.716;2023-08-06T14:07:07;0.50;;;0.50;;
21386;SDS011;10854;45.922;6.716;2023-08-06T14:09:35;1.15;;;0.60;;
21386;SDS011;10854;45.922;6.716;2023-08-06T14:12:04;1.15;;;0.43;;
21386;SDS011;10854;45.922;6.716;2023-08-06T14:14:32;0.47;;;0.45;;
21386;SDS011;10854;45.922;6.716;2023-08-06T14:17:00;0.38;;;0.38;;
21386;SDS011;10854;45.922;6.716;2023-08-06T14:19:29;0.63;;;0.50;;
21386;SDS011;10854;45.922;6.716;2023-08-06T14:21:57;0.47;;;0.40;;
21386;SDS011;10854;45.922;6.716;2023-08-06T14:24:25;1.30;;;0.57;;
21386;SDS011;10854;45.922;6.716;2023-08-06T14:26:53;0.60;;;0.50;;
21386;SDS011;10854;45.922;6.716;2023-08-06T14:29:21;0.40;;;0.40;;
21386;SDS011;10854;45.922;6.716;2023-08-06T14:31:50;0.47;;;0.47;;
21386;SDS011;10854;45.922;6.716;2023-08-06T14:34:18;0.57;;;0.40;;
21386;SDS011;10854;45.922;6.716;2023-08-06T14:36:47;0.50;;;0.40;;
21386;SDS011;10854;45.922;6.716;2023-08-06T14:39:15;0.53;;;0.53;;
21386;SDS011;10854;45.922;6.716;2023-08-06T14:41:43;0.60;;;0.50;;
21386;SDS011;10854;45.922;6.716;2023-08-06T14:44:11;1.10;;;0.53;;
21386;SDS011;10854;45.922;6.716;2023-08-06T14:46:40;0.63;;;0.50;;
21386;SDS011;10854;45.922;6.716;2023-08-06T14:49:08;0.70;;;0.67;;
21386;SDS011;10854;45.922;6.716;2023-08-06T14:51:36;0.63;;;0.50;;
21386;SDS011;10854;45.922;6.716;2023-08-06T14:54:06;0.60;;;0.60;;
21386;SDS011;10854;45.922;6.716;2023-08-06T14:56:34;0.60;;;0.60;;
21386;SDS011;10854;45.922;6.716;2023-08-06T14:59:02;0.60;;;0.60;;
21386;SDS011;10854;45.922;6.716;2023-08-06T15:01:30;0.40;;;0.40;;
21386;SDS011;10854;45.922;6.716;2023-08-06T15:03:58;0.50;;;0.47;;
21386;SDS011;10854;45.922;6.716;2023-08-06T15:06:27;0.50;;;0.50;;
21386;SDS011;10854;45.922;6.716;2023-08-06T15:08:55;1.60;;;0.70;;